sensor_id;sensor_type;location;lat;lon;timestamp;P1;durP1;ratioP1;P2;durP2;ratioP2
4434;SDS011;46552;52.150;8.428;2023-07-09T00:00:01;14.60;;;9.63;;
4434;SDS011;46552;52.150;8.428;2023-07-09T00:02:29;12.67;;;8.83;;
4434;SDS011;46552;52.150;8.428;2023-07-09T00:04:57;21.80;;;9.93;;
4434;SDS011;46552;52.150;8.428;2023-07-09T00:07:27;20.17;;;9.73;;
4434;SDS011;46552;52.150;8.428;2023-07-09T00:09:56;18.60;;;9.50;;
4434;SDS011;46552;52.150;8.428;2023-07-09T00:12:24;17.60;;;10.80;;
4434;SDS011;46552;52.150;8.428;2023-07-09T00:14:52;18.80;;;9.57;;
4434;SDS011;46552;52.150;8.428;2023-07-09T00:17:23;16.90;;;9.00;;
4434;SDS011;46552;52.150;8.428;2023-07-09T00:19:53;21.20;;;9.50;;
4434;SDS011;46552;52.150;8.428;2023-07-09T00:22:20;21.47;;;9.43;;
4434;SDS011;46552;52.150;8.428;2023-07-09T00:24:48;17.00;;;10.30;;
4434;SDS011;46552;52.150;8.428;2023-07-09T00:27:17;15.63;;;9.30;;
4434;SDS011;46552;52.150;8.428;2023-07-09T00:29:45;22.43;;;9.43;;
4434;SDS011;46552;52.150;8.428;2023-07-09T00:32:13;13.73;;;9.57;;
4434;SDS011;46552;52.150;8.428;2023-07-09T00:34:44;24.33;;;11.10;;
4434;SDS011;46552;52.150;8.428;2023-07-09T00:37:14;23.13;;;9.60;;
4434;SDS011;46552;52.150;8.428;2023-07-09T00:39:42;18.10;;;10.00;;
4434;SDS011;46552;52.150;8.428;2023-07-09T00:42:12;17.50;;;9.20;;
4434;SDS011;46552;52.150;8.428;2023-07-09T00:44:42;16.03;;;9.20;;
4434;SDS011;46552;52.150;8.428;2023-07-09T00:50:03;19.83;;;10.60;;
4434;SDS011;46552;52.150;8.428;2023-07-09T00:52:38;13.67;;;8.77;;
4434;SDS011;46552;52.150;8.428;2023-07-09T00:55:11;19.37;;;9.40;;
4434;SDS011;46552;52.150;8.428;2023-07-09T00:57:41;13.60;;;9.00;;
4434;SDS011;46552;52.150;8.428;2023-07-09T01:00:15;14.90;;;9.10;;
4434;SDS011;46552;52.150;8.428;2023-07-09T01:02:44;18.53;;;9.40;;
4434;SDS011;46552;52.150;8.428;2023-07-09T01:05:15;15.10;;;8.70;;
4434;SDS011;46552;52.150;8.428;2023-07-09T01:07:45;14.40;;;10.20;;
4434;SDS011;46552;52.150;8.428;2023-07-09T01:10:13;20.33;;;10.87;;
4434;SDS011;46552;52.150;8.428;2023-07-09T01:12:42;19.30;;;9.77;;
4434;SDS011;46552;52.150;8.428;2023-07-09T01:15:11;28.47;;;10.17;;
4434;SDS011;46552;52.150;8.428;2023-07-09T01:17:40;24.67;;;11.33;;
4434;SDS011;46552;52.150;8.428;2023-07-09T01:20:13;14.03;;;10.07;;
4434;SDS011;46552;52.150;8.428;2023-07-09T01:22:50;17.90;;;9.20;;
4434;SDS011;46552;52.150;8.428;2023-07-09T01:25:21;24.00;;;10.80;;
4434;SDS011;46552;52.150;8.428;2023-07-09T01:27:48;20.70;;;9.83;;
4434;SDS011;46552;52.150;8.428;2023-07-09T01:30:17;16.30;;;10.40;;
4434;SDS011;46552;52.150;8.428;2023-07-09T01:32:47;14.77;;;8.83;;
4434;SDS011;46552;52.150;8.428;2023-07-09T01:35:15;20.60;;;9.00;;
4434;SDS011;46552;52.150;8.428;2023-07-09T01:37:46;13.73;;;8.10;;
4434;SDS011;46552;52.150;8.428;2023-07-09T01:40:19;16.53;;;9.43;;
4434;SDS011;46552;52.150;8.428;2023-07-09T01:42:47;19.00;;;10.87;;
4434;SDS011;46552;52.150;8.428;2023-07-09T01:45:15;20.53;;;9.77;;
4434;SDS011;46552;52.150;8.428;2023-07-09T01:47:42;16.50;;;10.37;;
4434;SDS011;46552;52.150;8.428;2023-07-09T01:50:10;17.03;;;10.10;;
4434;SDS011;46552;52.150;8.428;2023-07-09T01:52:38;16.73;;;7.73;;
4434;SDS011;46552;52.150;8.428;2023-07-09T01:55:11;21.27;;;9.17;;
4434;SDS011;46552;52.150;8.428;2023-07-09T01:57:42;14.03;;;8.53;;
4434;SDS011;46552;52.150;8.428;2023-07-09T02:00:11;18.00;;;10.03;;
4434;SDS011;46552;52.150;8.428;2023-07-09T02:02:40;19.00;;;9.67;;
4434;SDS011;46552;52.150;8.428;2023-07-09T02:05:10;15.57;;;9.10;;
4434;SDS011;46552;52.150;8.428;2023-07-09T02:07:38;15.60;;;8.47;;
4434;SDS011;46552;52.150;8.428;2023-07-09T02:10:05;18.67;;;9.03;;
4434;SDS011;46552;52.150;8.428;2023-07-09T02:12:35;26.07;;;10.13;;
4434;SDS011;46552;52.150;8.428;2023-07-09T02:15:02;18.53;;;9.47;;
4434;SDS011;46552;52.150;8.428;2023-07-09T02:17:31;14.17;;;8.43;;
4434;SDS011;46552;52.150;8.428;2023-07-09T02:19:58;15.67;;;9.93;;
4434;SDS011;46552;52.150;8.428;2023-07-09T02:22:25;19.13;;;10.00;;
4434;SDS011;46552;52.150;8.428;2023-07-09T02:24:53;17.27;;;9.27;;
4434;SDS011;46552;52.150;8.428;2023-07-09T02:27:20;15.87;;;9.50;;
4434;SDS011;46552;52.150;8.428;2023-07-09T02:29:49;16.27;;;9.83;;
4434;SDS011;46552;52.150;8.428;2023-07-09T02:32:18;15.73;;;9.30;;
4434;SDS011;46552;52.150;8.428;2023-07-09T02:34:47;18.43;;;9.53;;
4434;SDS011;46552;52.150;8.428;2023-07-09T02:37:18;19.17;;;9.17;;
4434;SDS011;46552;52.150;8.428;2023-07-09T02:39:47;24.57;;;8.63;;
4434;SDS011;46552;52.150;8.428;2023-07-09T02:42:15;17.23;;;8.40;;
4434;SDS011;46552;52.150;8.428;2023-07-09T02:44:43;15.27;;;9.13;;
4434;SDS011;46552;52.150;8.428;2023-07-09T02:47:12;18.50;;;9.40;;
4434;SDS011;46552;52.150;8.428;2023-07-09T02:49:40;15.83;;;8.70;;
4434;SDS011;46552;52.150;8.428;2023-07-09T02:52:08;18.77;;;9.40;;
4434;SDS011;46552;52.150;8.428;2023-07-09T02:54:36;15.10;;;9.27;;
4434;SDS011;46552;52.150;8.428;2023-07-09T02:57:03;18.97;;;11.53;;
4434;SDS011;46552;52.150;8.428;2023-07-09T02:59:31;16.00;;;8.70;;
4434;SDS011;46552;52.150;8.428;2023-07-09T03:02:00;16.60;;;9.13;;
4434;SDS011;46552;52.150;8.428;2023-07-09T03:04:29;18.20;;;10.07;;
4434;SDS011;46552;52.150;8.428;2023-07-09T03:06:57;18.70;;;9.33;;
4434;SDS011;46552;52.150;8.428;2023-07-09T03:09:26;22.30;;;8.23;;
4434;SDS011;46552;52.150;8.428;2023-07-09T03:11:54;19.20;;;8.33;;
4434;SDS011;46552;52.150;8.428;2023-07-09T03:14:21;17.07;;;8.90;;
4434;SDS011;46552;52.150;8.428;2023-07-09T03:16:48;19.43;;;9.67;;
4434;SDS011;46552;52.150;8.428;2023-07-09T03:19:15;33.03;;;10.40;;
4434;SDS011;46552;52.150;8.428;2023-07-09T03:21:44;21.00;;;8.73;;
4434;SDS011;46552;52.150;8.428;2023-07-09T03:24:11;19.40;;;8.70;;
4434;SDS011;46552;52.150;8.428;2023-07-09T03:26:40;22.03;;;8.73;;
4434;SDS011;46552;52.150;8.428;2023-07-09T03:29:08;20.13;;;10.83;;
4434;SDS011;46552;52.150;8.428;2023-07-09T03:31:35;22.57;;;10.27;;
4434;SDS011;46552;52.150;8.428;2023-07-09T03:34:02;16.87;;;10.23;;
4434;SDS011;46552;52.150;8.428;2023-07-09T03:36:30;16.77;;;9.73;;
4434;SDS011;46552;52.150;8.428;2023-07-09T03:38:59;16.73;;;10.07;;
4434;SDS011;46552;52.150;8.428;2023-07-09T03:41:26;15.77;;;9.97;;
4434;SDS011;46552;52.150;8.428;2023-07-09T03:43:53;16.30;;;10.77;;
4434;SDS011;46552;52.150;8.428;2023-07-09T03:46:20;20.67;;;10.70;;
4434;SDS011;46552;52.150;8.428;2023-07-09T03:48:47;19.83;;;10.37;;
4434;SDS011;46552;52.150;8.428;2023-07-09T03:51:16;23.13;;;10.20;;
4434;SDS011;46552;52.150;8.428;2023-07-09T03:53:43;14.13;;;9.77;;
4434;SDS011;46552;52.150;8.428;2023-07-09T03:56:12;17.30;;;9.70;;
4434;SDS011;46552;52.150;8.428;2023-07-09T03:58:39;15.77;;;9.20;;
4434;SDS011;46552;52.150;8.428;2023-07-09T04:01:06;18.67;;;10.70;;
4434;SDS011;46552;52.150;8.428;2023-07-09T04:03:34;20.37;;;10.53;;
4434;SDS011;46552;52.150;8.428;2023-07-09T04:06:01;18.00;;;10.93;;
4434;SDS011;46552;52.150;8.428;2023-07-09T04:08:28;21.17;;;10.80;;
4434;SDS011;46552;52.150;8.428;2023-07-09T04:10:58;22.80;;;10.57;;
4434;SDS011;46552;52.150;8.428;2023-07-09T04:13:29;20.70;;;10.50;;
4434;SDS011;46552;52.150;8.428;2023-07-09T04:15:56;16.80;;;9.00;;
4434;SDS011;46552;52.150;8.428;2023-07-09T04:18:24;22.07;;;10.30;;
4434;SDS011;46552;52.150;8.428;2023-07-09T04:20:51;19.30;;;11.27;;
4434;SDS011;46552;52.150;8.428;2023-07-09T04:23:19;22.57;;;11.00;;
4434;SDS011;46552;52.150;8.428;2023-07-09T04:25:46;22.80;;;10.10;;
4434;SDS011;46552;52.150;8.428;2023-07-09T04:28:13;36.23;;;11.83;;
4434;SDS011;46552;52.150;8.428;2023-07-09T04:30:47;25.77;;;10.50;;
4434;SDS011;46552;52.150;8.428;2023-07-09T04:33:16;20.00;;;9.13;;
4434;SDS011;46552;52.150;8.428;2023-07-09T04:35:45;20.87;;;9.67;;
4434;SDS011;46552;52.150;8.428;2023-07-09T04:38:12;34.10;;;10.83;;
4434;SDS011;46552;52.150;8.428;2023-07-09T04:40:39;16.43;;;9.27;;
4434;SDS011;46552;52.150;8.428;2023-07-09T04:43:07;17.50;;;8.67;;
4434;SDS011;46552;52.150;8.428;2023-07-09T04:45:34;17.83;;;9.23;;
4434;SDS011;46552;52.150;8.428;2023-07-09T04:48:03;16.30;;;10.43;;
4434;SDS011;46552;52.150;8.428;2023-07-09T04:50:33;18.73;;;9.07;;
4434;SDS011;46552;52.150;8.428;2023-07-09T04:53:00;18.50;;;8.57;;
4434;SDS011;46552;52.150;8.428;2023-07-09T04:55:28;14.60;;;9.70;;
4434;SDS011;46552;52.150;8.428;2023-07-09T04:57:56;19.10;;;9.00;;
4434;SDS011;46552;52.150;8.428;2023-07-09T05:00:23;25.13;;;10.33;;
4434;SDS011;46552;52.150;8.428;2023-07-09T05:02:50;18.43;;;10.27;;
4434;SDS011;46552;52.150;8.428;2023-07-09T05:05:19;17.20;;;11.00;;
4434;SDS011;46552;52.150;8.428;2023-07-09T05:07:46;25.87;;;10.40;;
4434;SDS011;46552;52.150;8.428;2023-07-09T05:10:13;16.53;;;10.13;;
4434;SDS011;46552;52.150;8.428;2023-07-09T05:12:47;28.57;;;11.33;;
4434;SDS011;46552;52.150;8.428;2023-07-09T05:15:15;20.27;;;10.83;;
4434;SDS011;46552;52.150;8.428;2023-07-09T05:17:43;17.40;;;9.83;;
4434;SDS011;46552;52.150;8.428;2023-07-09T05:20:10;24.17;;;10.50;;
4434;SDS011;46552;52.150;8.428;2023-07-09T05:22:39;28.73;;;11.20;;
4434;SDS011;46552;52.150;8.428;2023-07-09T05:25:06;28.07;;;11.40;;
4434;SDS011;46552;52.150;8.428;2023-07-09T05:27:34;25.57;;;10.40;;
4434;SDS011;46552;52.150;8.428;2023-07-09T05:30:01;20.97;;;11.40;;
4434;SDS011;46552;52.150;8.428;2023-07-09T05:32:28;22.67;;;10.77;;
4434;SDS011;46552;52.150;8.428;2023-07-09T05:34:55;16.20;;;10.53;;
4434;SDS011;46552;52.150;8.428;2023-07-09T05:37:22;18.90;;;10.70;;
4434;SDS011;46552;52.150;8.428;2023-07-09T05:39:51;21.33;;;10.90;;
4434;SDS011;46552;52.150;8.428;2023-07-09T05:42:18;17.60;;;10.23;;
4434;SDS011;46552;52.150;8.428;2023-07-09T05:44:45;27.13;;;10.67;;
4434;SDS011;46552;52.150;8.428;2023-07-09T05:47:13;21.30;;;10.67;;
4434;SDS011;46552;52.150;8.428;2023-07-09T05:49:40;19.30;;;11.80;;
4434;SDS011;46552;52.150;8.428;2023-07-09T05:52:07;15.20;;;9.63;;
4434;SDS011;46552;52.150;8.428;2023-07-09T05:54:34;18.57;;;9.93;;
4434;SDS011;46552;52.150;8.428;2023-07-09T05:57:05;16.60;;;9.60;;
4434;SDS011;46552;52.150;8.428;2023-07-09T05:59:32;15.63;;;9.60;;
4434;SDS011;46552;52.150;8.428;2023-07-09T06:01:59;16.47;;;10.70;;
4434;SDS011;46552;52.150;8.428;2023-07-09T06:04:28;17.00;;;10.27;;
4434;SDS011;46552;52.150;8.428;2023-07-09T06:06:55;22.80;;;10.20;;
4434;SDS011;46552;52.150;8.428;2023-07-09T06:09:23;17.93;;;9.77;;
4434;SDS011;46552;52.150;8.428;2023-07-09T06:11:51;19.10;;;10.07;;
4434;SDS011;46552;52.150;8.428;2023-07-09T06:14:20;15.00;;;9.97;;
4434;SDS011;46552;52.150;8.428;2023-07-09T06:16:47;14.60;;;9.87;;
4434;SDS011;46552;52.150;8.428;2023-07-09T06:19:14;12.17;;;8.93;;
4434;SDS011;46552;52.150;8.428;2023-07-09T06:21:41;15.00;;;9.00;;
4434;SDS011;46552;52.150;8.428;2023-07-09T06:24:08;18.27;;;9.83;;
4434;SDS011;46552;52.150;8.428;2023-07-09T06:26:36;15.07;;;8.73;;
4434;SDS011;46552;52.150;8.428;2023-07-09T06:29:03;13.60;;;8.93;;
4434;SDS011;46552;52.150;8.428;2023-07-09T06:31:32;14.23;;;9.23;;
4434;SDS011;46552;52.150;8.428;2023-07-09T06:33:59;20.33;;;9.70;;
4434;SDS011;46552;52.150;8.428;2023-07-09T06:36:27;14.37;;;9.20;;
4434;SDS011;46552;52.150;8.428;2023-07-09T06:38:54;13.83;;;8.40;;
4434;SDS011;46552;52.150;8.428;2023-07-09T06:41:21;13.70;;;8.97;;
4434;SDS011;46552;52.150;8.428;2023-07-09T06:43:49;21.03;;;9.70;;
4434;SDS011;46552;52.150;8.428;2023-07-09T06:46:18;20.03;;;9.60;;
4434;SDS011;46552;52.150;8.428;2023-07-09T06:48:47;15.33;;;8.80;;
4434;SDS011;46552;52.150;8.428;2023-07-09T06:51:14;25.97;;;8.97;;
4434;SDS011;46552;52.150;8.428;2023-07-09T06:53:41;12.77;;;7.83;;
4434;SDS011;46552;52.150;8.428;2023-07-09T06:56:13;22.90;;;10.53;;
4434;SDS011;46552;52.150;8.428;2023-07-09T06:58:40;12.17;;;7.30;;
4434;SDS011;46552;52.150;8.428;2023-07-09T07:01:08;15.40;;;7.97;;
4434;SDS011;46552;52.150;8.428;2023-07-09T07:03:36;15.00;;;8.97;;
4434;SDS011;46552;52.150;8.428;2023-07-09T07:06:06;12.70;;;7.43;;
4434;SDS011;46552;52.150;8.428;2023-07-09T07:08:33;11.60;;;7.43;;
4434;SDS011;46552;52.150;8.428;2023-07-09T07:11:02;17.90;;;7.30;;
4434;SDS011;46552;52.150;8.428;2023-07-09T07:13:32;11.53;;;6.80;;
4434;SDS011;46552;52.150;8.428;2023-07-09T07:16:01;15.00;;;8.30;;
4434;SDS011;46552;52.150;8.428;2023-07-09T07:18:29;20.67;;;8.23;;
4434;SDS011;46552;52.150;8.428;2023-07-09T07:20:57;11.67;;;7.80;;
4434;SDS011;46552;52.150;8.428;2023-07-09T07:23:26;13.93;;;7.80;;
4434;SDS011;46552;52.150;8.428;2023-07-09T07:25:53;12.63;;;8.57;;
4434;SDS011;46552;52.150;8.428;2023-07-09T07:28:21;13.13;;;6.73;;
4434;SDS011;46552;52.150;8.428;2023-07-09T07:30:57;15.00;;;7.20;;
4434;SDS011;46552;52.150;8.428;2023-07-09T07:33:24;13.03;;;7.27;;
4434;SDS011;46552;52.150;8.428;2023-07-09T07:35:52;31.17;;;6.93;;
4434;SDS011;46552;52.150;8.428;2023-07-09T07:38:18;12.67;;;7.80;;
4434;SDS011;46552;52.150;8.428;2023-07-09T07:40:47;11.30;;;7.00;;
4434;SDS011;46552;52.150;8.428;2023-07-09T07:43:14;20.07;;;8.10;;
4434;SDS011;46552;52.150;8.428;2023-07-09T07:45:42;14.70;;;7.53;;
4434;SDS011;46552;52.150;8.428;2023-07-09T07:48:10;11.73;;;8.30;;
4434;SDS011;46552;52.150;8.428;2023-07-09T07:50:37;9.43;;;6.90;;
4434;SDS011;46552;52.150;8.428;2023-07-09T07:53:05;10.47;;;7.93;;
4434;SDS011;46552;52.150;8.428;2023-07-09T07:55:34;11.07;;;7.30;;
4434;SDS011;46552;52.150;8.428;2023-07-09T07:58:04;13.00;;;8.10;;
4434;SDS011;46552;52.150;8.428;2023-07-09T08:00:32;13.83;;;7.40;;
4434;SDS011;46552;52.150;8.428;2023-07-09T08:02:59;9.20;;;7.47;;
4434;SDS011;46552;52.150;8.428;2023-07-09T08:05:27;10.37;;;8.10;;
4434;SDS011;46552;52.150;8.428;2023-07-09T08:07:54;11.90;;;7.53;;
4434;SDS011;46552;52.150;8.428;2023-07-09T08:10:21;17.67;;;8.23;;
4434;SDS011;46552;52.150;8.428;2023-07-09T08:12:49;9.93;;;7.13;;
4434;SDS011;46552;52.150;8.428;2023-07-09T08:15:23;8.40;;;6.40;;
4434;SDS011;46552;52.150;8.428;2023-07-09T08:17:50;11.60;;;7.33;;
4434;SDS011;46552;52.150;8.428;2023-07-09T08:20:18;11.43;;;7.60;;
4434;SDS011;46552;52.150;8.428;2023-07-09T08:22:45;10.30;;;6.80;;
4434;SDS011;46552;52.150;8.428;2023-07-09T08:25:13;10.37;;;6.93;;
4434;SDS011;46552;52.150;8.428;2023-07-09T08:27:40;11.17;;;6.97;;
4434;SDS011;46552;52.150;8.428;2023-07-09T08:30:07;10.43;;;7.20;;
4434;SDS011;46552;52.150;8.428;2023-07-09T08:32:37;13.13;;;7.20;;
4434;SDS011;46552;52.150;8.428;2023-07-09T08:35:04;11.50;;;7.40;;
4434;SDS011;46552;52.150;8.428;2023-07-09T08:37:32;11.63;;;7.73;;
4434;SDS011;46552;52.150;8.428;2023-07-09T08:39:59;11.83;;;7.40;;
4434;SDS011;46552;52.150;8.428;2023-07-09T08:42:29;15.63;;;7.63;;
4434;SDS011;46552;52.150;8.428;2023-07-09T08:45:04;9.73;;;6.70;;
4434;SDS011;46552;52.150;8.428;2023-07-09T08:47:46;15.10;;;7.47;;
4434;SDS011;46552;52.150;8.428;2023-07-09T08:50:19;10.67;;;7.40;;
4434;SDS011;46552;52.150;8.428;2023-07-09T08:52:50;10.50;;;7.60;;
4434;SDS011;46552;52.150;8.428;2023-07-09T08:55:19;11.60;;;7.90;;
4434;SDS011;46552;52.150;8.428;2023-07-09T08:57:48;10.50;;;7.67;;
4434;SDS011;46552;52.150;8.428;2023-07-09T09:00:21;9.30;;;6.80;;
4434;SDS011;46552;52.150;8.428;2023-07-09T09:02:56;11.87;;;7.40;;
4434;SDS011;46552;52.150;8.428;2023-07-09T09:05:25;14.47;;;6.67;;
4434;SDS011;46552;52.150;8.428;2023-07-09T09:07:55;20.53;;;7.93;;
4434;SDS011;46552;52.150;8.428;2023-07-09T09:10:28;17.90;;;6.17;;
4434;SDS011;46552;52.150;8.428;2023-07-09T09:13:02;9.10;;;6.47;;
4434;SDS011;46552;52.150;8.428;2023-07-09T09:15:36;10.67;;;5.83;;
4434;SDS011;46552;52.150;8.428;2023-07-09T09:20:55;11.03;;;7.40;;
4434;SDS011;46552;52.150;8.428;2023-07-09T09:23:29;10.30;;;6.70;;
4434;SDS011;46552;52.150;8.428;2023-07-09T09:26:04;12.50;;;6.90;;
4434;SDS011;46552;52.150;8.428;2023-07-09T09:28:42;10.90;;;6.00;;
4434;SDS011;46552;52.150;8.428;2023-07-09T09:31:10;8.80;;;6.10;;
4434;SDS011;46552;52.150;8.428;2023-07-09T09:33:41;12.10;;;5.60;;
4434;SDS011;46552;52.150;8.428;2023-07-09T09:36:12;13.83;;;5.53;;
4434;SDS011;46552;52.150;8.428;2023-07-09T09:38:42;9.20;;;6.33;;
4434;SDS011;46552;52.150;8.428;2023-07-09T09:41:12;13.43;;;6.10;;
4434;SDS011;46552;52.150;8.428;2023-07-09T09:43:41;13.93;;;6.27;;
4434;SDS011;46552;52.150;8.428;2023-07-09T09:46:12;11.77;;;5.30;;
4434;SDS011;46552;52.150;8.428;2023-07-09T09:48:46;12.70;;;6.53;;
4434;SDS011;46552;52.150;8.428;2023-07-09T09:51:15;8.13;;;5.57;;
4434;SDS011;46552;52.150;8.428;2023-07-09T09:53:45;9.47;;;6.27;;
4434;SDS011;46552;52.150;8.428;2023-07-09T09:56:17;10.30;;;5.97;;
4434;SDS011;46552;52.150;8.428;2023-07-09T09:58:53;14.63;;;5.83;;
4434;SDS011;46552;52.150;8.428;2023-07-09T10:01:25;11.10;;;5.97;;
4434;SDS011;46552;52.150;8.428;2023-07-09T10:03:57;11.27;;;5.80;;
4434;SDS011;46552;52.150;8.428;2023-07-09T10:06:27;16.17;;;5.70;;
4434;SDS011;46552;52.150;8.428;2023-07-09T10:09:02;12.10;;;5.70;;
4434;SDS011;46552;52.150;8.428;2023-07-09T10:11:39;7.53;;;5.33;;
4434;SDS011;46552;52.150;8.428;2023-07-09T10:14:17;9.20;;;5.73;;
4434;SDS011;46552;52.150;8.428;2023-07-09T10:16:56;11.70;;;6.10;;
4434;SDS011;46552;52.150;8.428;2023-07-09T10:19:31;10.10;;;7.13;;
4434;SDS011;46552;52.150;8.428;2023-07-09T10:22:05;11.07;;;6.70;;
4434;SDS011;46552;52.150;8.428;2023-07-09T10:24:39;10.00;;;7.13;;
4434;SDS011;46552;52.150;8.428;2023-07-09T10:27:13;9.30;;;6.00;;
4434;SDS011;46552;52.150;8.428;2023-07-09T10:29:49;11.40;;;6.07;;
4434;SDS011;46552;52.150;8.428;2023-07-09T10:32:30;9.53;;;6.30;;
4434;SDS011;46552;52.150;8.428;2023-07-09T10:35:12;13.10;;;5.63;;
4434;SDS011;46552;52.150;8.428;2023-07-09T10:37:48;12.40;;;5.70;;
4434;SDS011;46552;52.150;8.428;2023-07-09T10:40:27;10.30;;;6.30;;
4434;SDS011;46552;52.150;8.428;2023-07-09T10:43:00;10.47;;;6.13;;
4434;SDS011;46552;52.150;8.428;2023-07-09T10:45:30;10.53;;;6.27;;
4434;SDS011;46552;52.150;8.428;2023-07-09T10:48:00;11.07;;;7.30;;
4434;SDS011;46552;52.150;8.428;2023-07-09T10:50:33;10.10;;;6.00;;
4434;SDS011;46552;52.150;8.428;2023-07-09T10:53:04;14.30;;;7.43;;
4434;SDS011;46552;52.150;8.428;2023-07-09T10:55:38;13.80;;;7.00;;
4434;SDS011;46552;52.150;8.428;2023-07-09T10:58:16;17.13;;;7.07;;
4434;SDS011;46552;52.150;8.428;2023-07-09T11:00:53;9.10;;;6.10;;
4434;SDS011;46552;52.150;8.428;2023-07-09T11:03:21;8.23;;;5.50;;
4434;SDS011;46552;52.150;8.428;2023-07-09T11:05:57;8.90;;;5.90;;
4434;SDS011;46552;52.150;8.428;2023-07-09T11:08:25;9.43;;;5.93;;
4434;SDS011;46552;52.150;8.428;2023-07-09T11:10:59;13.57;;;6.03;;
4434;SDS011;46552;52.150;8.428;2023-07-09T11:13:33;10.43;;;5.93;;
4434;SDS011;46552;52.150;8.428;2023-07-09T11:16:05;12.93;;;6.03;;
4434;SDS011;46552;52.150;8.428;2023-07-09T11:18:34;12.10;;;5.47;;
4434;SDS011;46552;52.150;8.428;2023-07-09T11:21:05;12.73;;;6.20;;
4434;SDS011;46552;52.150;8.428;2023-07-09T11:23:37;10.27;;;5.37;;
4434;SDS011;46552;52.150;8.428;2023-07-09T11:26:10;10.93;;;5.50;;
4434;SDS011;46552;52.150;8.428;2023-07-09T11:28:40;10.60;;;5.73;;
4434;SDS011;46552;52.150;8.428;2023-07-09T11:31:16;9.23;;;5.47;;
4434;SDS011;46552;52.150;8.428;2023-07-09T11:33:47;7.23;;;5.13;;
4434;SDS011;46552;52.150;8.428;2023-07-09T11:36:25;10.67;;;5.47;;
4434;SDS011;46552;52.150;8.428;2023-07-09T11:38:53;8.23;;;6.20;;
4434;SDS011;46552;52.150;8.428;2023-07-09T11:41:25;13.27;;;6.17;;
4434;SDS011;46552;52.150;8.428;2023-07-09T11:44:12;11.97;;;5.53;;
4434;SDS011;46552;52.150;8.428;2023-07-09T11:46:47;10.53;;;6.20;;
4434;SDS011;46552;52.150;8.428;2023-07-09T11:49:24;12.30;;;5.40;;
4434;SDS011;46552;52.150;8.428;2023-07-09T11:51:57;11.07;;;6.30;;
4434;SDS011;46552;52.150;8.428;2023-07-09T11:54:28;8.70;;;5.07;;
4434;SDS011;46552;52.150;8.428;2023-07-09T11:57:01;10.70;;;5.60;;
4434;SDS011;46552;52.150;8.428;2023-07-09T11:59:30;10.10;;;6.03;;
4434;SDS011;46552;52.150;8.428;2023-07-09T12:02:05;9.20;;;5.90;;
4434;SDS011;46552;52.150;8.428;2023-07-09T12:04:40;8.80;;;5.93;;
4434;SDS011;46552;52.150;8.428;2023-07-09T12:07:12;8.83;;;5.27;;
4434;SDS011;46552;52.150;8.428;2023-07-09T12:09:43;7.70;;;5.60;;
4434;SDS011;46552;52.150;8.428;2023-07-09T12:12:16;8.70;;;5.77;;
4434;SDS011;46552;52.150;8.428;2023-07-09T12:14:46;14.10;;;5.40;;
4434;SDS011;46552;52.150;8.428;2023-07-09T12:17:13;13.70;;;6.30;;
4434;SDS011;46552;52.150;8.428;2023-07-09T12:19:40;10.97;;;5.80;;
4434;SDS011;46552;52.150;8.428;2023-07-09T12:22:13;16.63;;;5.40;;
4434;SDS011;46552;52.150;8.428;2023-07-09T12:24:46;14.80;;;5.90;;
4434;SDS011;46552;52.150;8.428;2023-07-09T12:27:20;19.40;;;6.97;;
4434;SDS011;46552;52.150;8.428;2023-07-09T12:29:53;10.10;;;5.83;;
4434;SDS011;46552;52.150;8.428;2023-07-09T12:32:22;10.03;;;6.20;;
4434;SDS011;46552;52.150;8.428;2023-07-09T12:34:52;19.77;;;6.03;;
4434;SDS011;46552;52.150;8.428;2023-07-09T12:37:21;9.20;;;5.60;;
4434;SDS011;46552;52.150;8.428;2023-07-09T12:39:50;10.77;;;5.87;;
4434;SDS011;46552;52.150;8.428;2023-07-09T12:42:19;11.17;;;6.10;;
4434;SDS011;46552;52.150;8.428;2023-07-09T12:44:52;10.40;;;5.97;;
4434;SDS011;46552;52.150;8.428;2023-07-09T12:47:19;12.47;;;6.13;;
4434;SDS011;46552;52.150;8.428;2023-07-09T12:49:49;13.20;;;6.07;;
4434;SDS011;46552;52.150;8.428;2023-07-09T12:52:18;13.47;;;7.00;;
4434;SDS011;46552;52.150;8.428;2023-07-09T12:54:57;8.90;;;5.63;;
4434;SDS011;46552;52.150;8.428;2023-07-09T12:57:27;15.00;;;6.10;;
4434;SDS011;46552;52.150;8.428;2023-07-09T12:59:55;15.13;;;5.83;;
4434;SDS011;46552;52.150;8.428;2023-07-09T13:02:24;9.57;;;6.43;;
4434;SDS011;46552;52.150;8.428;2023-07-09T13:04:58;13.03;;;5.83;;
4434;SDS011;46552;52.150;8.428;2023-07-09T13:07:30;11.10;;;5.57;;
4434;SDS011;46552;52.150;8.428;2023-07-09T13:10:05;13.40;;;6.70;;
4434;SDS011;46552;52.150;8.428;2023-07-09T13:12:41;12.67;;;6.87;;
4434;SDS011;46552;52.150;8.428;2023-07-09T13:15:19;8.93;;;5.40;;
4434;SDS011;46552;52.150;8.428;2023-07-09T13:17:56;10.80;;;5.17;;
4434;SDS011;46552;52.150;8.428;2023-07-09T13:20:25;8.50;;;5.50;;
4434;SDS011;46552;52.150;8.428;2023-07-09T13:22:53;12.77;;;5.57;;
4434;SDS011;46552;52.150;8.428;2023-07-09T13:25:21;8.23;;;5.27;;
4434;SDS011;46552;52.150;8.428;2023-07-09T13:27:49;9.57;;;5.70;;
4434;SDS011;46552;52.150;8.428;2023-07-09T13:30:17;10.90;;;5.40;;
4434;SDS011;46552;52.150;8.428;2023-07-09T13:32:45;7.57;;;4.80;;
4434;SDS011;46552;52.150;8.428;2023-07-09T13:35:15;8.30;;;5.10;;
4434;SDS011;46552;52.150;8.428;2023-07-09T13:37:44;8.33;;;5.60;;
4434;SDS011;46552;52.150;8.428;2023-07-09T13:40:12;9.20;;;5.83;;
4434;SDS011;46552;52.150;8.428;2023-07-09T13:42:42;8.10;;;4.87;;
4434;SDS011;46552;52.150;8.428;2023-07-09T13:45:16;13.90;;;6.27;;
4434;SDS011;46552;52.150;8.428;2023-07-09T13:47:45;9.03;;;5.63;;
4434;SDS011;46552;52.150;8.428;2023-07-09T13:50:13;10.70;;;5.27;;
4434;SDS011;46552;52.150;8.428;2023-07-09T13:52:41;13.23;;;5.60;;
4434;SDS011;46552;52.150;8.428;2023-07-09T13:55:11;10.53;;;4.90;;
4434;SDS011;46552;52.150;8.428;2023-07-09T13:57:47;6.00;;;4.27;;
4434;SDS011;46552;52.150;8.428;2023-07-09T14:00:15;14.67;;;5.17;;
4434;SDS011;46552;52.150;8.428;2023-07-09T14:02:43;9.83;;;5.07;;
4434;SDS011;46552;52.150;8.428;2023-07-09T14:05:11;17.50;;;5.47;;
4434;SDS011;46552;52.150;8.428;2023-07-09T14:07:40;12.23;;;4.90;;
4434;SDS011;46552;52.150;8.428;2023-07-09T14:10:09;9.43;;;5.33;;
4434;SDS011;46552;52.150;8.428;2023-07-09T14:12:41;7.80;;;4.90;;
4434;SDS011;46552;52.150;8.428;2023-07-09T14:15:15;14.90;;;5.40;;
4434;SDS011;46552;52.150;8.428;2023-07-09T14:17:43;15.27;;;5.33;;
4434;SDS011;46552;52.150;8.428;2023-07-09T14:20:13;11.30;;;4.77;;
4434;SDS011;46552;52.150;8.428;2023-07-09T14:22:41;8.33;;;4.97;;
4434;SDS011;46552;52.150;8.428;2023-07-09T14:25:14;8.13;;;4.77;;
4434;SDS011;46552;52.150;8.428;2023-07-09T14:27:43;11.17;;;5.37;;
4434;SDS011;46552;52.150;8.428;2023-07-09T14:30:15;7.07;;;4.63;;
4434;SDS011;46552;52.150;8.428;2023-07-09T14:32:43;8.63;;;4.33;;
4434;SDS011;46552;52.150;8.428;2023-07-09T14:35:13;7.97;;;4.63;;
4434;SDS011;46552;52.150;8.428;2023-07-09T14:37:41;11.63;;;5.00;;
4434;SDS011;46552;52.150;8.428;2023-07-09T14:40:09;14.07;;;5.00;;
4434;SDS011;46552;52.150;8.428;2023-07-09T14:42:36;6.83;;;4.07;;
4434;SDS011;46552;52.150;8.428;2023-07-09T14:45:05;7.27;;;4.77;;
4434;SDS011;46552;52.150;8.428;2023-07-09T14:47:43;10.87;;;4.73;;
4434;SDS011;46552;52.150;8.428;2023-07-09T14:50:11;9.47;;;4.37;;
4434;SDS011;46552;52.150;8.428;2023-07-09T14:52:39;11.70;;;5.10;;
4434;SDS011;46552;52.150;8.428;2023-07-09T14:55:09;12.43;;;5.47;;
4434;SDS011;46552;52.150;8.428;2023-07-09T14:57:40;11.20;;;4.93;;
4434;SDS011;46552;52.150;8.428;2023-07-09T15:00:11;9.83;;;4.40;;
4434;SDS011;46552;52.150;8.428;2023-07-09T15:02:40;10.40;;;5.23;;
4434;SDS011;46552;52.150;8.428;2023-07-09T15:05:13;10.20;;;4.10;;
4434;SDS011;46552;52.150;8.428;2023-07-09T15:07:41;10.73;;;4.80;;